Time;durP1;ratioP1;P1;durP2;ratioP2;P2;SDS_P1;SDS_P2;PMS_P1;PMS_P2;Temp;Humidity;BMP_temperature;BMP_pressure;BME280_temperature;BME280_humidity;BME280_pressure;Samples;Min_cycle;Max_cycle;Signal;HPM_P1;HPM_P2
2023/08/16 06:08:48;;;;;;;;;3.33;2.00;;;;;;;;5097818;22;46167;-68
2023/08/16 06:11:13;;;;;;;;;2.33;2.33;;;;;;;;5016711;28;45465;-69
2023/08/16 06:13:38;;;;;;;;;4.00;4.00;;;;;;;;5008061;28;45319;-68
2023/08/16 06:16:03;;;;;;;;;3.33;2.67;;;;;;;;5013604;28;45373;-69
2023/08/16 06:18:29;;;;;;;;;3.67;3.00;;;;;;;;5007719;28;46054;-69
2023/08/16 06:20:54;;;;;;;;;3.00;3.00;;;;;;;;5014171;28;45555;-69
2023/08/16 06:23:19;;;;;;;;;4.00;3.00;;;;;;;;5010908;28;45520;-69
2023/08/16 06:25:44;;;;;;;;;6.00;4.67;;;;;;;;5014264;28;45443;-69
2023/08/16 06:28:10;;;;;;;;;8.00;6.00;;;;;;;;5012927;28;45314;-69
2023/08/16 06:30:35;;;;;;;;;5.67;5.33;;;;;;;;5001941;28;46065;-69
2023/08/16 06:33:00;;;;;;;;;5.33;4.00;;;;;;;;5013110;28;45236;-70
2023/08/16 06:35:25;;;;;;;;;4.67;4.67;;;;;;;;5006812;28;45516;-68
2023/08/16 06:37:50;;;;;;;;;4.00;3.00;;;;;;;;5015333;28;45331;-69
2023/08/16 06:40:16;;;;;;;;;4.67;2.00;;;;;;;;5046601;28;45642;-69
2023/08/16 06:42:41;;;;;;;;;3.00;3.00;;;;;;;;5019991;28;45695;-69
2023/08/16 06:45:07;;;;;;;;;3.00;3.00;;;;;;;;5022173;28;45382;-68
2023/08/16 06:47:32;;;;;;;;;2.67;2.67;;;;;;;;5018985;28;45228;-68
2023/08/16 06:49:57;;;;;;;;;3.33;3.33;;;;;;;;5020684;28;46162;-69
2023/08/16 06:52:23;;;;;;;;;5.33;3.00;;;;;;;;5018819;28;46026;-69
2023/08/16 06:54:48;;;;;;;;;3.33;3.00;;;;;;;;5020826;28;45299;-69
2023/08/16 06:57:13;;;;;;;;;5.00;2.00;;;;;;;;5020319;28;45449;-69
2023/08/16 06:59:38;;;;;;;;;4.33;3.00;;;;;;;;5014545;28;45418;-69
2023/08/16 07:02:04;;;;;;;;;3.33;3.33;;;;;;;;5018206;28;45280;-68
2023/08/16 07:04:29;;;;;;;;;5.00;4.00;;;;;;;;5015689;28;45228;-70
2023/08/16 07:06:54;;;;;;;;;7.00;4.00;;;;;;;;5018295;28;45532;-70
2023/08/16 07:09:21;;;;;;;;;3.00;3.00;;;;;;;;5014836;28;46706;-70
2023/08/16 07:11:47;;;;;;;;;3.75;3.75;;;;;;;;5019850;28;45414;-70
2023/08/16 07:14:12;;;;;;;;;5.25;3.75;;;;;;;;5016681;28;45418;-70
2023/08/16 07:16:39;;;;;;;;;5.25;3.00;;;;;;;;5018231;28;45642;-70
2023/08/16 07:19:04;;;;;;;;;7.00;3.00;;;;;;;;5014691;28;46164;-70
2023/08/16 07:21:30;;;;;;;;;7.50;3.50;;;;;;;;5018475;28;45425;-71
2023/08/16 07:23:55;;;;;;;;;5.75;5.00;;;;;;;;5016987;28;45422;-70
2023/08/16 07:26:20;;;;;;;;;6.25;4.75;;;;;;;;5020400;28;45231;-72
2023/08/16 07:28:45;;;;;;;;;2.25;2.00;;;;;;;;5010756;28;47063;-72
2023/08/16 07:31:11;;;;;;;;;6.75;3.75;;;;;;;;5017544;28;45289;-73
2023/08/16 07:33:36;;;;;;;;;2.75;2.75;;;;;;;;5013627;28;45318;-70
2023/08/16 07:36:01;;;;;;;;;4.25;4.00;;;;;;;;5017279;28;45347;-71
2023/08/16 07:38:28;;;;;;;;;4.00;4.00;;;;;;;;5013059;28;45418;-71
2023/08/16 07:40:54;;;;;;;;;7.00;4.75;;;;;;;;5020094;28;45326;-71
2023/08/16 07:43:19;;;;;;;;;4.00;4.00;;;;;;;;5017732;28;45607;-70
2023/08/16 07:45:44;;;;;;;;;6.00;4.00;;;;;;;;5019224;28;45789;-70
2023/08/16 07:48:09;;;;;;;;;5.00;5.00;;;;;;;;5017025;28;45553;-70
2023/08/16 07:50:34;;;;;;;;;4.00;1.50;;;;;;;;5018467;28;45280;-71
2023/08/16 07:53:00;;;;;;;;;5.75;5.00;;;;;;;;5011569;28;45402;-70
2023/08/16 07:55:30;;;;;;;;;6.75;5.00;;;;;;;;5006203;28;45212;-70
2023/08/16 07:57:55;;;;;;;;;7.25;6.50;;;;;;;;5003845;28;46845;-74
2023/08/16 08:00:21;;;;;;;;;7.00;5.50;;;;;;;;5003755;28;45556;-73
2023/08/16 08:02:46;;;;;;;;;6.50;6.50;;;;;;;;5005794;28;45528;-73
2023/08/16 08:05:11;;;;;;;;;5.50;5.25;;;;;;;;5004627;28;45603;-74
2023/08/16 08:07:36;;;;;;;;;4.00;4.00;;;;;;;;5000548;28;45382;-74
2023/08/16 08:10:02;;;;;;;;;6.50;4.00;;;;;;;;5001091;28;45614;-75
2023/08/16 08:12:29;;;;;;;;;2.75;2.75;;;;;;;;5011022;28;45428;-74
2023/08/16 08:14:57;;;;;;;;;6.00;4.25;;;;;;;;5007630;28;45426;-74
2023/08/16 08:17:22;;;;;;;;;3.00;3.00;;;;;;;;5011743;28;45560;-74
2023/08/16 08:19:47;;;;;;;;;6.75;5.00;;;;;;;;5014700;28;45787;-74
2023/08/16 08:22:13;;;;;;;;;9.50;5.00;;;;;;;;5012073;28;46107;-74
2023/08/16 08:24:38;;;;;;;;;7.00;4.00;;;;;;;;5014607;28;45395;-74
2023/08/16 08:27:04;;;;;;;;;4.75;3.75;;;;;;;;5013641;28;45561;-73
2023/08/16 08:29:29;;;;;;;;;8.00;8.00;;;;;;;;5012849;28;45480;-74
2023/08/16 08:31:54;;;;;;;;;2.75;2.75;;;;;;;;5012975;28;45426;-74
2023/08/16 08:34:19;;;;;;;;;5.25;4.75;;;;;;;;5017390;28;45379;-74
2023/08/16 08:36:44;;;;;;;;;12.25;11.00;;;;;;;;5015458;28;45478;-74
2023/08/16 08:39:10;;;;;;;;;8.25;6.25;;;;;;;;5012129;28;45503;-74
2023/08/16 08:41:36;;;;;;;;;9.75;5.00;;;;;;;;5017773;28;45512;-74
2023/08/16 08:44:01;;;;;;;;;6.60;5.40;;;;;;;;5014614;28;45495;-74
2023/08/16 08:46:28;;;;;;;;;6.50;6.50;;;;;;;;5016293;28;47072;-75
2023/08/16 08:48:53;;;;;;;;;11.60;9.00;;;;;;;;5014305;28;45367;-75
2023/08/16 08:51:18;;;;;;;;;9.75;7.50;;;;;;;;5019292;28;45216;-74
2023/08/16 08:53:44;;;;;;;;;5.00;4.25;;;;;;;;5016291;28;45222;-74
2023/08/16 08:56:09;;;;;;;;;7.00;5.75;;;;;;;;5018239;28;47374;-73
2023/08/16 08:58:35;;;;;;;;;6.25;4.50;;;;;;;;5016493;28;45276;-74
2023/08/16 09:01:01;;;;;;;;;5.80;5.80;;;;;;;;5019588;28;45237;-74
2023/08/16 09:03:28;;;;;;;;;9.20;7.00;;;;;;;;5012737;28;45457;-75
2023/08/16 09:05:54;;;;;;;;;7.60;4.80;;;;;;;;5018029;28;48059;-76
2023/08/16 09:08:20;;;;;;;;;5.20;4.40;;;;;;;;5013040;28;46588;-75
2023/08/16 09:10:46;;;;;;;;;7.75;5.50;;;;;;;;5011237;28;45351;-75
2023/08/16 09:13:11;;;;;;;;;8.00;5.00;;;;;;;;5012934;28;45498;-76
2023/08/16 09:15:37;;;;;;;;;7.00;5.75;;;;;;;;5018731;28;45339;-76
2023/08/16 09:18:05;;;;;;;;;8.50;4.50;;;;;;;;5013382;28;45813;-76
2023/08/16 09:20:31;;;;;;;;;6.50;5.25;;;;;;;;5018276;28;45438;-74
2023/08/16 09:22:56;;;;;;;;;5.75;4.50;;;;;;;;5013955;28;45974;-75
2023/08/16 09:25:23;;;;;;;;;9.75;6.50;;;;;;;;5018946;28;46591;-75
2023/08/16 09:27:50;;;;;;;;;7.80;5.20;;;;;;;;5008700;28;45500;-75
2023/08/16 09:30:15;;;;;;;;;5.40;3.60;;;;;;;;5008783;28;45353;-75
2023/08/16 09:32:40;;;;;;;;;4.25;4.25;;;;;;;;5037226;28;45533;-77
2023/08/16 09:35:06;;;;;;;;;8.25;5.00;;;;;;;;5008735;28;45533;-75
2023/08/16 09:37:32;;;;;;;;;9.80;8.60;;;;;;;;5004549;28;45341;-76
2023/08/16 09:39:57;;;;;;;;;5.75;3.25;;;;;;;;5007761;28;45404;-75
2023/08/16 09:42:32;;;;;;;;;3.50;3.00;;;;;;;;5006122;28;45462;-75
2023/08/16 09:44:57;;;;;;;;;9.20;4.60;;;;;;;;5014103;28;45573;-75
2023/08/16 09:47:23;;;;;;;;;5.00;5.00;;;;;;;;5013507;28;45356;-74
2023/08/16 09:49:49;;;;;;;;;3.75;3.50;;;;;;;;5013952;28;45356;-74
2023/08/16 09:52:15;;;;;;;;;5.80;3.00;;;;;;;;5012523;28;45309;-75
2023/08/16 09:54:40;;;;;;;;;4.00;4.00;;;;;;;;5015688;28;46472;-75
2023/08/16 09:57:05;;;;;;;;;2.00;1.50;;;;;;;;5015392;28;45246;-76
2023/08/16 09:59:31;;;;;;;;;5.00;3.00;;;;;;;;5016678;28;45437;-77
2023/08/16 10:01:57;;;;;;;;;4.50;3.50;;;;;;;;5008768;28;45482;-76
2023/08/16 10:04:22;;;;;;;;;4.60;3.40;;;;;;;;5004644;28;46388;-76
2023/08/16 10:06:49;;;;;;;;;3.25;2.25;;;;;;;;5001720;28;45400;-75
2023/08/16 10:09:15;;;;;;;;;3.00;3.00;;;;;;;;5006334;28;45366;-74
2023/08/16 10:11:40;;;;;;;;;4.00;2.60;;;;;;;;5006372;28;45882;-75
2023/08/16 10:14:06;;;;;;;;;2.75;2.25;;;;;;;;5013752;28;45703;-75
2023/08/16 10:16:33;;;;;;;;;5.40;2.80;;;;;;;;5014255;28;45362;-76
2023/08/16 10:19:00;;;;;;;;;2.00;2.00;;;;;;;;5003777;28;45430;-75
2023/08/16 10:21:27;;;;;;;;;4.20;2.80;;;;;;;;5012683;28;45765;-76
2023/08/16 10:23:55;;;;;;;;;2.20;2.20;;;;;;;;5012990;28;45543;-77
2023/08/16 10:26:22;;;;;;;;;2.20;2.20;;;;;;;;5015913;28;45475;-76
2023/08/16 10:28:50;;;;;;;;;2.80;2.80;;;;;;;;5012662;28;45450;-74
2023/08/16 10:31:18;;;;;;;;;2.80;2.80;;;;;;;;5015998;28;46081;-75
2023/08/16 10:33:46;;;;;;;;;1.00;1.00;;;;;;;;5010966;28;45598;-76
2023/08/16 10:36:12;;;;;;;;;1.80;1.80;;;;;;;;5014510;28;45308;-75
2023/08/16 10:38:38;;;;;;;;;3.00;1.50;;;;;;;;5012733;28;45401;-78
2023/08/16 10:41:09;;;;;;;;;1.75;1.75;;;;;;;;5013114;28;45661;-76
2023/08/16 10:43:35;;;;;;;;;1.40;1.40;;;;;;;;5014300;28;46634;-74
2023/08/16 10:46:00;;;;;;;;;5.00;2.00;;;;;;;;5015439;28;45331;-75
2023/08/16 10:48:30;;;;;;;;;3.40;2.80;;;;;;;;5012394;28;45328;-74
2023/08/16 10:50:59;;;;;;;;;1.80;0.40;;;;;;;;5016066;28;45449;-74
2023/08/16 10:53:27;;;;;;;;;4.60;3.00;;;;;;;;5013009;28;46221;-74
2023/08/16 10:55:56;;;;;;;;;0.60;0.60;;;;;;;;5015653;28;45380;-74
2023/08/16 10:58:25;;;;;;;;;1.20;1.20;;;;;;;;5015100;28;45446;-74
2023/08/16 11:00:58;;;;;;;;;2.20;1.80;;;;;;;;5017614;28;45609;-74
2023/08/16 11:03:29;;;;;;;;;2.00;2.00;;;;;;;;5007216;28;45731;-74
2023/08/16 11:05:56;;;;;;;;;2.00;1.80;;;;;;;;5008510;28;45344;-74
2023/08/16 11:08:22;;;;;;;;;2.20;0.80;;;;;;;;5005415;28;45404;-74
2023/08/16 11:10:47;;;;;;;;;2.50;2.50;;;;;;;;5003525;28;45370;-74
2023/08/16 11:13:12;;;;;;;;;1.75;1.25;;;;;;;;5000658;28;46615;-75
2023/08/16 11:15:40;;;;;;;;;1.00;1.00;;;;;;;;5006463;28;45271;-76
2023/08/16 11:18:05;;;;;;;;;1.00;1.00;;;;;;;;5001341;28;45508;-75
2023/08/16 11:20:30;;;;;;;;;0.00;0.00;;;;;;;;5021048;28;45307;-74
2023/08/16 11:22:57;;;;;;;;;3.00;2.75;;;;;;;;5011657;28;45620;-75
2023/08/16 11:25:23;;;;;;;;;1.80;1.80;;;;;;;;5020919;28;45304;-74
2023/08/16 11:27:50;;;;;;;;;1.25;1.25;;;;;;;;5012822;28;45347;-74
2023/08/16 11:30:15;;;;;;;;;1.00;1.00;;;;;;;;5016194;28;46300;-75
2023/08/16 11:32:41;;;;;;;;;1.00;1.00;;;;;;;;5008999;28;47119;-74
2023/08/16 11:35:11;;;;;;;;;2.00;1.00;;;;;;;;5019572;28;45598;-74
2023/08/16 11:37:37;;;;;;;;;2.80;2.80;;;;;;;;5009323;28;45483;-74
2023/08/16 11:40:07;;;;;;;;;3.75;2.25;;;;;;;;5014473;28;45352;-74
2023/08/16 11:42:33;;;;;;;;;1.80;1.20;;;;;;;;5012724;28;46204;-74
2023/08/16 11:44:58;;;;;;;;;1.75;1.75;;;;;;;;5012876;28;45508;-74
2023/08/16 11:47:23;;;;;;;;;1.50;1.50;;;;;;;;5013416;28;45351;-75
2023/08/16 11:49:49;;;;;;;;;1.25;1.25;;;;;;;;5012089;28;46154;-73
2023/08/16 11:52:19;;;;;;;;;1.75;1.50;;;;;;;;5012409;28;45410;-74
2023/08/16 11:54:45;;;;;;;;;2.00;2.00;;;;;;;;5010288;28;45364;-75
2023/08/16 11:57:18;;;;;;;;;2.00;2.00;;;;;;;;5044324;28;45296;-74
2023/08/16 11:59:52;;;;;;;;;1.00;1.00;;;;;;;;5012553;28;45521;-74
2023/08/16 12:02:17;;;;;;;;;0.80;0.80;;;;;;;;5013914;28;45463;-74
2023/08/16 12:04:43;;;;;;;;;1.00;1.00;;;;;;;;5005669;28;45209;-74
2023/08/16 12:07:10;;;;;;;;;0.75;0.75;;;;;;;;5009891;28;45320;-74
2023/08/16 12:09:40;;;;;;;;;1.60;1.60;;;;;;;;5002091;28;45558;-73
2023/08/16 12:12:06;;;;;;;;;3.20;1.40;;;;;;;;5004369;28;46070;-74
2023/08/16 12:14:31;;;;;;;;;2.40;0.60;;;;;;;;5008224;28;45416;-75
2023/08/16 12:16:57;;;;;;;;;1.25;1.25;;;;;;;;5013440;28;45604;-74
2023/08/16 12:19:22;;;;;;;;;1.00;0.00;;;;;;;;5004860;28;45309;-74
2023/08/16 12:21:47;;;;;;;;;1.25;1.25;;;;;;;;5008823;28;45401;-74
2023/08/16 12:24:12;;;;;;;;;1.50;1.00;;;;;;;;5006553;28;45864;-74
2023/08/16 12:26:38;;;;;;;;;0.50;0.50;;;;;;;;5010729;28;45264;-74
2023/08/16 12:29:03;;;;;;;;;1.50;1.50;;;;;;;;5008699;28;45541;-74
2023/08/16 12:31:29;;;;;;;;;1.00;1.00;;;;;;;;5009820;28;45417;-76
2023/08/16 12:33:54;;;;;;;;;2.00;2.00;;;;;;;;5009343;28;45226;-76
2023/08/16 12:36:19;;;;;;;;;2.25;1.25;;;;;;;;5010829;28;45355;-74
2023/08/16 12:38:44;;;;;;;;;3.00;2.25;;;;;;;;5012401;28;45601;-74
2023/08/16 12:41:10;;;;;;;;;0.50;0.50;;;;;;;;5010472;28;45478;-73
2023/08/16 12:43:35;;;;;;;;;2.25;2.25;;;;;;;;5011290;28;45434;-74
2023/08/16 12:46:05;;;;;;;;;1.00;1.00;;;;;;;;5009067;28;45287;-74
2023/08/16 12:48:30;;;;;;;;;1.20;1.20;;;;;;;;5010841;28;46092;-74
2023/08/16 12:50:55;;;;;;;;;1.00;1.00;;;;;;;;5011643;28;45521;-73
2023/08/16 12:53:20;;;;;;;;;2.00;2.00;;;;;;;;5011184;28;45267;-75
2023/08/16 12:55:46;;;;;;;;;1.50;1.50;;;;;;;;5011092;28;45394;-74
2023/08/16 12:58:11;;;;;;;;;1.75;1.75;;;;;;;;5012089;28;46046;-74
2023/08/16 13:00:37;;;;;;;;;2.00;1.00;;;;;;;;5008829;28;46756;-74
2023/08/16 13:03:04;;;;;;;;;1.60;1.60;;;;;;;;5005514;28;45265;-74
2023/08/16 13:05:30;;;;;;;;;1.80;1.80;;;;;;;;5007695;28;45304;-74
2023/08/16 13:07:55;;;;;;;;;2.00;0.75;;;;;;;;5009709;28;45417;-75
2023/08/16 13:10:20;;;;;;;;;1.25;1.25;;;;;;;;5043900;28;45894;-74
2023/08/16 13:12:45;;;;;;;;;1.25;1.25;;;;;;;;5014099;28;45273;-74
2023/08/16 13:15:10;;;;;;;;;1.25;1.25;;;;;;;;5016825;28;45416;-74
2023/08/16 13:17:36;;;;;;;;;2.50;2.25;;;;;;;;5012664;28;45231;-74
2023/08/16 13:20:01;;;;;;;;;0.75;0.75;;;;;;;;5014989;28;46668;-74
2023/08/16 13:22:26;;;;;;;;;0.50;0.00;;;;;;;;5011954;28;45382;-74
2023/08/16 13:24:51;;;;;;;;;3.00;1.75;;;;;;;;5015960;28;45279;-76
2023/08/16 13:27:16;;;;;;;;;2.00;2.00;;;;;;;;5015240;28;45522;-74
2023/08/16 13:29:42;;;;;;;;;2.00;2.00;;;;;;;;5012678;28;47934;-74
2023/08/16 13:32:07;;;;;;;;;2.75;2.50;;;;;;;;5012861;28;45435;-74
2023/08/16 13:34:33;;;;;;;;;1.25;1.00;;;;;;;;5013731;28;45344;-73
2023/08/16 13:36:59;;;;;;;;;2.40;1.60;;;;;;;;5012765;28;45372;-75
2023/08/16 13:39:25;;;;;;;;;3.50;2.25;;;;;;;;5011591;28;46278;-74
2023/08/16 13:41:50;;;;;;;;;1.60;1.40;;;;;;;;5014873;28;45407;-73
2023/08/16 13:44:15;;;;;;;;;2.50;2.50;;;;;;;;5010645;28;45255;-75
2023/08/16 13:46:40;;;;;;;;;2.75;2.75;;;;;;;;5012231;28;45516;-75
2023/08/16 13:49:05;;;;;;;;;1.50;0.50;;;;;;;;5010248;28;46476;-76
2023/08/16 13:51:31;;;;;;;;;2.00;2.00;;;;;;;;5012877;28;45523;-75
2023/08/16 13:53:56;;;;;;;;;1.75;1.75;;;;;;;;5011230;28;45308;-75
2023/08/16 13:56:21;;;;;;;;;1.00;1.00;;;;;;;;5012555;28;45446;-74
2023/08/16 13:58:46;;;;;;;;;2.25;2.25;;;;;;;;5010784;28;45522;-74
2023/08/16 14:01:11;;;;;;;;;3.50;3.00;;;;;;;;5011767;28;45398;-74
2023/08/16 14:03:37;;;;;;;;;2.50;1.50;;;;;;;;5013471;28;45442;-74
2023/08/16 14:06:02;;;;;;;;;1.00;1.00;;;;;;;;5017223;28;45928;-74
2023/08/16 14:08:28;;;;;;;;;2.50;2.00;;;;;;;;5002972;28;45490;-74
2023/08/16 14:10:55;;;;;;;;;2.00;2.00;;;;;;;;5007640;28;45162;-74
2023/08/16 14:13:21;;;;;;;;;2.40;2.40;;;;;;;;5008553;28;45455;-73
2023/08/16 14:15:49;;;;;;;;;1.50;1.50;;;;;;;;5009765;28;45569;-71
2023/08/16 14:18:14;;;;;;;;;1.00;1.00;;;;;;;;5011578;28;45461;-74
2023/08/16 14:20:39;;;;;;;;;2.00;1.75;;;;;;;;5018075;28;45465;-74
2023/08/16 14:23:05;;;;;;;;;1.00;1.00;;;;;;;;5009447;28;45467;-74
2023/08/16 14:25:31;;;;;;;;;2.00;1.00;;;;;;;;5009609;28;45463;-74
2023/08/16 14:27:56;;;;;;;;;1.20;1.00;;;;;;;;5008532;28;46637;-76
2023/08/16 14:30:21;;;;;;;;;0.50;0.00;;;;;;;;5018393;28;45406;-74
2023/08/16 14:32:46;;;;;;;;;1.50;1.50;;;;;;;;5009138;28;45553;-73
2023/08/16 14:35:11;;;;;;;;;0.75;0.75;;;;;;;;5016769;28;45999;-74
2023/08/16 14:37:37;;;;;;;;;1.00;1.00;;;;;;;;5009312;28;45341;-74
2023/08/16 14:40:02;;;;;;;;;2.00;2.00;;;;;;;;5016130;28;45511;-74
2023/08/16 14:42:27;;;;;;;;;5.00;5.00;;;;;;;;5013420;28;45312;-73
2023/08/16 14:44:52;;;;;;;;;1.25;0.00;;;;;;;;5014551;28;46671;-74
2023/08/16 14:47:17;;;;;;;;;6.00;4.00;;;;;;;;5011948;28;45665;-74
2023/08/16 14:49:43;;;;;;;;;7.50;7.00;;;;;;;;5011781;28;45360;-74
2023/08/16 14:52:08;;;;;;;;;3.75;3.00;;;;;;;;5014714;28;45243;-75
2023/08/16 14:54:33;;;;;;;;;2.50;2.00;;;;;;;;5019140;28;45368;-74
2023/08/16 14:56:58;;;;;;;;;4.00;2.00;;;;;;;;5017211;28;45649;-76
2023/08/16 14:59:23;;;;;;;;;4.50;2.50;;;;;;;;5020027;28;45423;-75
2023/08/16 15:01:49;;;;;;;;;2.25;2.00;;;;;;;;5017215;28;45270;-74
2023/08/16 15:04:14;;;;;;;;;2.75;2.75;;;;;;;;5011605;28;46879;-74
2023/08/16 15:06:39;;;;;;;;;2.25;2.25;;;;;;;;5016066;28;45295;-74
2023/08/16 15:09:05;;;;;;;;;5.25;3.25;;;;;;;;5009707;28;45416;-73
2023/08/16 15:11:30;;;;;;;;;2.20;1.60;;;;;;;;5018760;28;45387;-74
2023/08/16 15:13:56;;;;;;;;;3.00;1.00;;;;;;;;5015895;28;45244;-74
2023/08/16 15:16:21;;;;;;;;;2.25;1.75;;;;;;;;5019758;28;46226;-74
2023/08/16 15:18:46;;;;;;;;;1.00;1.00;;;;;;;;5013685;28;45297;-74
2023/08/16 15:21:11;;;;;;;;;1.50;1.50;;;;;;;;5020531;28;45280;-75
2023/08/16 15:23:38;;;;;;;;;3.25;3.25;;;;;;;;5013021;28;45266;-74
2023/08/16 15:26:04;;;;;;;;;6.60;4.60;;;;;;;;5021096;28;45422;-76
2023/08/16 15:28:30;;;;;;;;;2.80;2.00;;;;;;;;5014579;28;45323;-74
2023/08/16 15:30:58;;;;;;;;;2.00;2.00;;;;;;;;5019416;28;45343;-73
2023/08/16 15:33:23;;;;;;;;;4.40;2.20;;;;;;;;5016446;28;45984;-74
2023/08/16 15:35:49;;;;;;;;;3.50;3.50;;;;;;;;5020340;28;46746;-74
2023/08/16 15:38:33;;;;;;;;;1.25;1.00;;;;;;;;5018305;28;45233;-74
2023/08/16 15:40:58;;;;;;;;;1.20;1.00;;;;;;;;5016891;28;45245;-74
2023/08/16 15:43:24;;;;;;;;;3.75;2.50;;;;;;;;5013932;28;45529;-74
2023/08/16 15:45:49;;;;;;;;;1.50;1.50;;;;;;;;5017191;28;46069;-74
2023/08/16 15:48:14;;;;;;;;;2.00;2.00;;;;;;;;5016508;28;45282;-75
2023/08/16 15:50:40;;;;;;;;;2.00;2.00;;;;;;;;5018326;28;45364;-75
2023/08/16 15:53:05;;;;;;;;;3.50;3.50;;;;;;;;5011617;28;45469;-74
2023/08/16 15:55:30;;;;;;;;;1.75;1.75;;;;;;;;5014484;28;47185;-74
2023/08/16 15:57:56;;;;;;;;;6.00;4.75;;;;;;;;5012638;28;45453;-75
2023/08/16 16:00:21;;;;;;;;;3.50;3.50;;;;;;;;5015917;28;45273;-74
2023/08/16 16:02:46;;;;;;;;;2.00;2.00;;;;;;;;5014005;28;47025;-74
2023/08/16 16:05:12;;;;;;;;;2.00;1.00;;;;;;;;5014573;28;45462;-74
2023/08/16 16:07:37;;;;;;;;;4.50;3.00;;;;;;;;5017206;28;45234;-74
2023/08/16 16:10:03;;;;;;;;;6.75;4.50;;;;;;;;5016368;28;45376;-76
2023/08/16 16:12:28;;;;;;;;;3.20;2.60;;;;;;;;5012936;28;46076;-77
2023/08/16 16:14:53;;;;;;;;;2.50;2.25;;;;;;;;5015987;28;46533;-75
2023/08/16 16:17:20;;;;;;;;;2.00;2.00;;;;;;;;5014973;28;45359;-74
2023/08/16 16:19:45;;;;;;;;;2.80;2.40;;;;;;;;5018472;28;45438;-74
2023/08/16 16:22:10;;;;;;;;;2.75;2.75;;;;;;;;5015444;28;45694;-74
2023/08/16 16:24:36;;;;;;;;;3.75;3.75;;;;;;;;5014744;28;46770;-73
2023/08/16 16:27:01;;;;;;;;;2.75;2.50;;;;;;;;5010760;28;45340;-74
2023/08/16 16:29:26;;;;;;;;;2.25;2.25;;;;;;;;5008715;28;45510;-74
2023/08/16 16:31:52;;;;;;;;;2.25;2.25;;;;;;;;5010492;28;45526;-74
2023/08/16 16:34:17;;;;;;;;;2.40;1.20;;;;;;;;5013863;28;45446;-73
2023/08/16 16:36:43;;;;;;;;;4.75;3.25;;;;;;;;5014191;28;45248;-74
2023/08/16 16:39:08;;;;;;;;;4.50;3.50;;;;;;;;5011371;28;45189;-74
2023/08/16 16:41:33;;;;;;;;;2.25;2.25;;;;;;;;5016847;28;45611;-74
2023/08/16 16:43:58;;;;;;;;;3.75;3.75;;;;;;;;5013200;28;46982;-73
2023/08/16 16:46:23;;;;;;;;;3.00;3.00;;;;;;;;5017768;28;45410;-74
2023/08/16 16:48:50;;;;;;;;;4.25;4.25;;;;;;;;5014769;28;45277;-74
2023/08/16 16:51:15;;;;;;;;;3.00;3.00;;;;;;;;5019180;28;45442;-74
2023/08/16 16:53:41;;;;;;;;;3.50;3.50;;;;;;;;5003983;28;45545;-74
2023/08/16 16:56:06;;;;;;;;;4.25;3.25;;;;;;;;5001417;28;45382;-74
2023/08/16 16:58:31;;;;;;;;;4.00;4.00;;;;;;;;5004073;28;45203;-74
2023/08/16 17:00:56;;;;;;;;;4.00;4.00;;;;;;;;5001047;28;45445;-74
2023/08/16 17:03:22;;;;;;;;;4.75;4.75;;;;;;;;5008890;28;46624;-72
2023/08/16 17:05:48;;;;;;;;;5.20;3.80;;;;;;;;5010971;28;45530;-73
2023/08/16 17:08:13;;;;;;;;;5.75;5.75;;;;;;;;5006594;28;45602;-74
2023/08/16 17:10:39;;;;;;;;;4.50;3.25;;;;;;;;5010885;28;45296;-73
2023/08/16 17:13:04;;;;;;;;;4.75;4.75;;;;;;;;5007681;28;46700;-73
2023/08/16 17:15:29;;;;;;;;;3.25;3.25;;;;;;;;5008255;28;45407;-73
2023/08/16 17:17:54;;;;;;;;;4.75;4.75;;;;;;;;5012277;28;45331;-73
2023/08/16 17:20:19;;;;;;;;;6.25;5.00;;;;;;;;5008930;28;45311;-73
2023/08/16 17:22:45;;;;;;;;;5.25;5.25;;;;;;;;5012540;28;45395;-73
2023/08/16 17:25:10;;;;;;;;;4.25;4.25;;;;;;;;5011283;28;45282;-73
2023/08/16 17:27:35;;;;;;;;;3.75;3.75;;;;;;;;5006327;28;45371;-73
2023/08/16 17:30:00;;;;;;;;;4.75;4.75;;;;;;;;5003838;28;45385;-73
2023/08/16 17:32:26;;;;;;;;;1.75;1.75;;;;;;;;5003875;28;45273;-73
2023/08/16 17:34:51;;;;;;;;;4.50;4.50;;;;;;;;5002768;28;45399;-73
2023/08/16 17:37:18;;;;;;;;;5.75;4.50;;;;;;;;5003021;28;45572;-72
2023/08/16 17:39:43;;;;;;;;;3.40;3.40;;;;;;;;5001039;28;45454;-73
2023/08/16 17:42:08;;;;;;;;;5.00;5.00;;;;;;;;5002717;28;46209;-73
2023/08/16 17:44:34;;;;;;;;;9.75;9.75;;;;;;;;5011671;28;45221;-72
2023/08/16 17:46:59;;;;;;;;;5.75;4.75;;;;;;;;5009180;28;45597;-72
2023/08/16 17:49:24;;;;;;;;;13.00;11.75;;;;;;;;5015365;28;45180;-72
2023/08/16 17:51:49;;;;;;;;;7.25;5.75;;;;;;;;5016668;28;46540;-73
2023/08/16 17:54:14;;;;;;;;;6.75;4.50;;;;;;;;5015683;28;45271;-74
2023/08/16 17:56:40;;;;;;;;;5.75;5.00;;;;;;;;5016531;28;45562;-72
2023/08/16 17:59:05;;;;;;;;;7.25;5.75;;;;;;;;5015019;28;45209;-73
2023/08/16 18:01:30;;;;;;;;;5.00;5.00;;;;;;;;5016930;28;47969;-74
2023/08/16 18:03:55;;;;;;;;;6.00;6.00;;;;;;;;5008160;28;45158;-74
2023/08/16 18:06:21;;;;;;;;;6.00;5.75;;;;;;;;5014449;28;45291;-74
2023/08/16 18:08:46;;;;;;;;;7.00;5.00;;;;;;;;5009598;28;45365;-73
2023/08/16 18:11:12;;;;;;;;;5.00;5.00;;;;;;;;5007545;28;46751;-74
2023/08/16 18:13:38;;;;;;;;;5.25;5.25;;;;;;;;5007476;28;45763;-74
2023/08/16 18:16:04;;;;;;;;;5.00;5.00;;;;;;;;5014821;28;45434;-73
2023/08/16 18:18:29;;;;;;;;;6.00;4.00;;;;;;;;5016194;28;46127;-72
2023/08/16 18:20:54;;;;;;;;;6.00;6.00;;;;;;;;5003557;28;46006;-72
2023/08/16 18:23:23;;;;;;;;;7.75;6.75;;;;;;;;5007702;28;45348;-73
2023/08/16 18:25:49;;;;;;;;;5.75;5.00;;;;;;;;5012305;28;45210;-72
2023/08/16 18:28:14;;;;;;;;;5.00;4.25;;;;;;;;5011105;28;45372;-72
2023/08/16 18:30:39;;;;;;;;;5.75;5.75;;;;;;;;5012904;28;45622;-72
2023/08/16 18:33:05;;;;;;;;;6.00;5.00;;;;;;;;5013625;28;45367;-74
2023/08/16 18:35:31;;;;;;;;;7.75;6.50;;;;;;;;5012303;28;45154;-73
2023/08/16 18:37:57;;;;;;;;;5.25;5.25;;;;;;;;5016420;28;45272;-73
2023/08/16 18:40:22;;;;;;;;;5.25;5.00;;;;;;;;5010979;28;45225;-74
2023/08/16 18:42:47;;;;;;;;;6.00;6.00;;;;;;;;5013199;28;45547;-74
2023/08/16 18:45:12;;;;;;;;;6.00;5.75;;;;;;;;5004642;28;45354;-74
2023/08/16 18:47:38;;;;;;;;;6.75;5.00;;;;;;;;5006789;28;46867;-74
2023/08/16 18:50:03;;;;;;;;;4.25;4.25;;;;;;;;5005270;28;46251;-73
2023/08/16 18:52:28;;;;;;;;;7.00;7.00;;;;;;;;5005036;28;45340;-73
2023/08/16 18:54:54;;;;;;;;;8.25;5.75;;;;;;;;5012067;28;45283;-74
2023/08/16 18:57:19;;;;;;;;;5.00;5.00;;;;;;;;5004773;28;45320;-74
2023/08/16 18:59:44;;;;;;;;;5.50;5.50;;;;;;;;5042109;28;47115;-73
2023/08/16 19:02:09;;;;;;;;;6.00;5.50;;;;;;;;5017201;28;45518;-73
2023/08/16 19:04:35;;;;;;;;;8.00;7.00;;;;;;;;5015027;28;45456;-73
2023/08/16 19:07:00;;;;;;;;;6.00;5.50;;;;;;;;5016330;28;46069;-73
2023/08/16 19:09:25;;;;;;;;;6.00;6.00;;;;;;;;5008609;28;46454;-73
2023/08/16 19:11:50;;;;;;;;;5.00;5.00;;;;;;;;5015734;28;45458;-72
2023/08/16 19:14:16;;;;;;;;;6.00;6.00;;;;;;;;5015783;28;45312;-72
2023/08/16 19:16:41;;;;;;;;;7.50;6.00;;;;;;;;5017175;28;45663;-72
2023/08/16 19:19:06;;;;;;;;;8.00;7.00;;;;;;;;5008209;28;45383;-73
2023/08/16 19:21:34;;;;;;;;;5.25;4.50;;;;;;;;5005716;28;45297;-72
2023/08/16 19:24:00;;;;;;;;;7.00;5.25;;;;;;;;5008396;28;45224;-73
2023/08/16 19:26:25;;;;;;;;;7.50;7.50;;;;;;;;5015133;28;47001;-73
2023/08/16 19:28:50;;;;;;;;;6.00;6.00;;;;;;;;5006880;28;46139;-73
2023/08/16 19:31:15;;;;;;;;;7.00;4.50;;;;;;;;5003953;28;45341;-72
2023/08/16 19:33:40;;;;;;;;;6.00;6.00;;;;;;;;5005332;28;45465;-72
2023/08/16 19:36:06;;;;;;;;;7.25;7.25;;;;;;;;5002128;28;45216;-72
2023/08/16 19:38:31;;;;;;;;;6.50;6.50;;;;;;;;5035747;28;47075;-73
2023/08/16 19:40:56;;;;;;;;;9.75;9.00;;;;;;;;5004313;28;45194;-73
2023/08/16 19:43:21;;;;;;;;;10.00;10.00;;;;;;;;5013691;28;45293;-73
2023/08/16 19:45:50;;;;;;;;;10.25;9.25;;;;;;;;5018734;28;45418;-74
2023/08/16 19:48:15;;;;;;;;;9.25;9.25;;;;;;;;5014059;28;47551;-73
2023/08/16 19:50:42;;;;;;;;;9.75;9.00;;;;;;;;5018045;28;45324;-73
2023/08/16 19:53:08;;;;;;;;;9.50;9.50;;;;;;;;5012360;28;45319;-73
2023/08/16 19:55:33;;;;;;;;;11.75;11.50;;;;;;;;5016779;28;45480;-73
2023/08/16 19:57:58;;;;;;;;;8.75;8.75;;;;;;;;5014245;28;46169;-73
2023/08/16 20:00:25;;;;;;;;;11.25;10.00;;;;;;;;5016386;28;45395;-74
2023/08/16 20:02:50;;;;;;;;;9.00;9.00;;;;;;;;5013956;28;45474;-73
2023/08/16 20:05:16;;;;;;;;;11.25;10.50;;;;;;;;5015951;28;46917;-74
2023/08/16 20:07:41;;;;;;;;;11.75;10.00;;;;;;;;5013960;28;45451;-74
2023/08/16 20:10:06;;;;;;;;;13.00;11.50;;;;;;;;5017729;28;45268;-74
2023/08/16 20:12:32;;;;;;;;;11.75;10.00;;;;;;;;5013159;28;45320;-73
2023/08/16 20:14:58;;;;;;;;;12.75;10.75;;;;;;;;5012405;28;45208;-74
2023/08/16 20:17:26;;;;;;;;;10.00;10.00;;;;;;;;5013941;28;46402;-73
2023/08/16 20:19:52;;;;;;;;;11.75;10.25;;;;;;;;5011382;28;45320;-73
2023/08/16 20:22:17;;;;;;;;;13.25;11.00;;;;;;;;5007058;28;45446;-73
2023/08/16 20:24:42;;;;;;;;;10.00;10.00;;;;;;;;5013465;28;45334;-73
2023/08/16 20:27:07;;;;;;;;;12.75;11.25;;;;;;;;5014277;28;47150;-73
2023/08/16 20:29:32;;;;;;;;;11.25;11.25;;;;;;;;5010297;28;45426;-73
2023/08/16 20:31:58;;;;;;;;;12.75;11.25;;;;;;;;5011382;28;45564;-73
